createdAt,value
2019-01-03T00:00:28.274Z,99270.37
2019-01-03T00:03:11.955Z,99276.77
2019-01-03T00:06:00.782Z,99276.37
2019-01-03T00:08:49.583Z,99282.50
2019-01-03T00:11:51.526Z,99280.64
2019-01-03T00:14:39.519Z,99286.34
2019-01-03T00:17:27.402Z,99294.21
2019-01-03T00:20:15.378Z,99291.89
2019-01-03T00:23:03.442Z,99295.95
2019-01-03T00:25:51.574Z,99298.28
2019-01-03T00:28:39.612Z,99293.41
2019-01-03T00:31:27.769Z,99298.55
2019-01-03T00:34:15.746Z,99298.45
2019-01-03T00:36:58.550Z,99298.14
2019-01-03T00:39:47.311Z,99312.12
2019-01-03T00:42:35.348Z,99298.61
2019-01-03T00:45:24.456Z,99297.59
2019-01-03T00:48:13.235Z,99298.84
2019-01-03T00:51:01.163Z,99296.92
2019-01-03T00:53:39.004Z,99302.17
2019-01-03T00:56:27.026Z,99293.09
2019-01-03T00:59:08.418Z,99297.33
2019-01-03T01:01:57.183Z,99291.98
2019-01-03T01:04:45.274Z,99294.69
2019-01-03T01:07:33.301Z,99288.52
2019-01-03T01:10:21.491Z,99291.77
2019-01-03T01:13:09.485Z,99285.14
2019-01-03T01:15:57.561Z,99284.28
2019-01-03T01:18:54.081Z,99286.16
2019-01-03T01:24:44.558Z,99283.57
2019-01-03T01:27:32.521Z,99279.61
2019-01-03T01:30:19.469Z,99280.38
2019-01-03T01:33:08.246Z,99282.66
2019-01-03T01:35:56.453Z,99270.19
2019-01-03T01:38:44.434Z,99277.31
2019-01-03T01:41:32.410Z,99271.43
2019-01-03T01:44:20.406Z,99266.73
2019-01-03T01:47:17.447Z,99267.51
2019-01-03T01:50:05.435Z,99272.48
2019-01-03T01:52:54.443Z,99267.85
2019-01-03T01:55:43.227Z,99268.16
2019-01-03T01:58:31.096Z,99268.34
2019-01-03T02:01:19.082Z,99256.65
2019-01-03T02:04:07.013Z,99263.22
2019-01-03T02:09:56.831Z,99262.16
2019-01-03T02:12:45.638Z,99258.91
2019-01-03T02:18:36.446Z,99255.62
2019-01-03T02:21:24.482Z,99253.73
2019-01-03T02:24:13.266Z,99254.92
2019-01-03T02:27:01.355Z,99259.50
2019-01-03T02:29:49.327Z,99251.83
2019-01-03T02:32:37.361Z,99255.89
2019-01-03T02:35:26.184Z,99263.47
2019-01-03T02:41:10.859Z,99253.94
2019-01-03T02:43:59.650Z,99250.45
2019-01-03T02:46:47.631Z,99254.74
2019-01-03T02:49:35.623Z,99260.44
2019-01-03T02:52:23.548Z,99259.34
2019-01-03T02:55:12.331Z,99258.62
2019-01-03T02:58:00.199Z,99255.47
2019-01-03T03:00:48.125Z,99244.45
2019-01-03T03:03:37.044Z,99241.98
2019-01-03T03:06:25.828Z,99244.66
2019-01-03T03:09:02.142Z,99250.32
2019-01-03T03:11:50.136Z,99249.30
2019-01-03T03:14:38.106Z,99247.41
2019-01-03T03:17:25.983Z,99262.59
2019-01-03T03:20:13.950Z,99268.73
2019-01-03T03:23:02.108Z,99262.78
2019-01-03T03:25:50.135Z,99264.80
2019-01-03T03:28:38.106Z,99273.70
2019-01-03T03:31:26.894Z,99274.19
2019-01-03T03:34:17.300Z,99274.73
2019-01-03T03:37:05.289Z,99274.09
2019-01-03T03:39:53.169Z,99270.95
2019-01-03T03:42:41.146Z,99277.20
2019-01-03T03:45:29.480Z,99277.08
2019-01-03T03:48:17.521Z,99273.80
2019-01-03T03:51:06.282Z,99266.36
2019-01-03T03:53:47.928Z,99270.58
2019-01-03T03:56:36.715Z,99267.20
2019-01-03T03:59:24.819Z,99271.77
2019-01-03T04:02:12.861Z,99267.43
2019-01-03T04:05:01.706Z,99271.74
2019-01-03T04:07:52.277Z,99275.73
2019-01-03T04:10:40.255Z,99278.82
2019-01-03T04:13:19.994Z,99291.51
2019-01-03T04:16:08.783Z,99288.98
2019-01-03T04:18:53.922Z,99295.14
2019-01-03T04:21:41.795Z,99296.21
2019-01-03T04:24:29.777Z,99302.97
2019-01-03T04:27:17.721Z,99308.53
2019-01-03T04:30:05.802Z,99315.84
2019-01-03T04:32:53.789Z,99315.95
2019-01-03T04:35:39.797Z,99322.67
2019-01-03T04:38:27.760Z,99329.34
2019-01-03T04:41:15.752Z,99335.33
2019-01-03T04:44:03.733Z,99337.48
2019-01-03T04:46:52.552Z,99339.35
2019-01-03T04:49:40.543Z,99344.45
2019-01-03T04:52:28.523Z,99343.33
2019-01-03T04:55:16.514Z,99343.13
2019-01-03T04:58:10.234Z,99349.58
2019-01-03T05:00:58.995Z,99348.40
2019-01-03T05:03:46.964Z,99356.08
2019-01-03T05:06:34.941Z,99354.84
2019-01-03T05:12:24.862Z,99365.17
2019-01-03T05:15:12.853Z,99368.39
2019-01-03T05:18:00.825Z,99373.89
2019-01-03T05:20:48.805Z,99374.13
2019-01-03T05:23:36.777Z,99375.33
2019-01-03T05:26:24.761Z,99380.46
2019-01-03T05:29:13.553Z,99382.01
2019-01-03T05:32:01.426Z,99379.70
2019-01-03T05:34:49.517Z,99381.52
2019-01-03T05:37:37.572Z,99378.97
2019-01-03T05:40:25.554Z,99388.51
2019-01-03T05:43:13.552Z,99386.16
2019-01-03T05:46:01.534Z,99390.37
2019-01-03T05:48:49.508Z,99392.95
2019-01-03T05:51:37.578Z,99393.75
2019-01-03T05:54:25.548Z,99395.88
2019-01-03T05:57:13.521Z,99396.75
2019-01-03T06:00:01.400Z,99395.75
2019-01-03T06:05:51.422Z,99392.72
2019-01-03T06:08:39.512Z,99404.00
2019-01-03T06:11:21.292Z,99398.80
2019-01-03T06:14:09.389Z,99398.86
2019-01-03T06:16:46.790Z,99400.10
2019-01-03T06:19:35.570Z,99398.47
2019-01-03T06:22:23.427Z,99399.64
2019-01-03T06:25:11.403Z,99408.58
2019-01-03T06:28:00.182Z,99413.66
2019-01-03T06:30:48.183Z,99411.84
2019-01-03T06:33:36.165Z,99410.11
2019-01-03T06:36:24.139Z,99410.59
2019-01-03T06:39:12.115Z,99401.25
2019-01-03T06:42:00.109Z,99401.61
2019-01-03T06:44:48.291Z,99405.66
2019-01-03T06:47:37.065Z,99413.21
2019-01-03T06:50:24.308Z,99416.74
2019-01-03T06:53:08.406Z,99418.27
2019-01-03T06:56:05.382Z,99405.65
2019-01-03T06:58:56.369Z,99403.61
2019-01-03T07:01:34.235Z,99397.48
2019-01-03T07:04:21.005Z,99395.30
2019-01-03T07:07:08.986Z,99418.21
2019-01-03T07:09:57.086Z,99437.09
2019-01-03T07:12:51.069Z,99456.16
2019-01-03T07:15:35.177Z,99468.58
2019-01-03T07:18:23.955Z,99481.20
2019-01-03T07:21:11.831Z,99486.47
2019-01-03T07:24:06.188Z,99496.73
2019-01-03T07:26:52.626Z,99497.13
2019-01-03T07:29:43.461Z,99491.87
2019-01-03T07:32:31.508Z,99489.56
2019-01-03T07:38:02.784Z,99482.81
2019-01-03T07:40:51.566Z,99480.77
2019-01-03T07:43:39.440Z,99479.11
2019-01-03T07:46:27.523Z,99474.00
2019-01-03T07:49:14.510Z,99462.61
2019-01-03T07:52:03.291Z,99464.72
2019-01-03T07:54:51.249Z,99459.27
2019-01-03T07:57:39.229Z,99451.34
2019-01-03T08:00:27.434Z,99449.66
2019-01-03T08:03:15.423Z,99448.10
2019-01-03T08:06:03.408Z,99444.00
2019-01-03T08:08:51.453Z,99443.73
2019-01-03T08:11:39.435Z,99449.70
2019-01-03T08:14:27.410Z,99451.23
2019-01-03T08:17:21.387Z,99454.53
2019-01-03T08:20:04.184Z,99459.64
2019-01-03T08:23:08.013Z,99464.15
2019-01-03T08:25:56.774Z,99454.75
2019-01-03T08:28:35.791Z,99457.59
2019-01-03T08:31:24.586Z,99464.25
2019-01-03T08:34:12.571Z,99463.83
2019-01-03T08:37:00.371Z,99462.97
2019-01-03T08:39:49.314Z,99460.92
2019-01-03T08:42:37.282Z,99458.60
2019-01-03T08:45:19.140Z,99458.67
2019-01-03T08:48:05.589Z,99455.71
2019-01-03T08:50:53.558Z,99444.36
2019-01-03T08:53:41.555Z,99433.75
2019-01-03T08:56:29.633Z,99435.47
2019-01-03T08:59:17.522Z,99429.42
2019-01-03T09:02:03.952Z,99426.71
2019-01-03T09:04:52.326Z,99422.30
2019-01-03T09:07:41.109Z,99421.52
2019-01-03T09:10:29.033Z,99414.66
2019-01-03T09:13:17.016Z,99405.73
2019-01-03T09:16:05.042Z,99401.05
2019-01-03T09:18:53.015Z,99397.20
2019-01-03T09:21:41.053Z,99388.45
2019-01-03T09:24:29.883Z,99383.63
2019-01-03T09:27:17.866Z,99381.31
2019-01-03T09:30:05.935Z,99383.00
2019-01-03T09:32:46.412Z,99392.06
2019-01-03T09:35:35.181Z,99385.98
2019-01-03T09:38:23.099Z,99387.12
2019-01-03T09:41:11.083Z,99387.86
2019-01-03T09:43:59.066Z,99384.81
2019-01-03T09:46:27.592Z,99383.27
2019-01-03T09:48:56.930Z,99378.92
2019-01-03T09:51:25.457Z,99369.35
2019-01-03T09:53:54.777Z,99373.29
2019-01-03T09:56:24.073Z,99380.37
2019-01-03T09:58:53.410Z,99377.02
2019-01-03T10:01:22.729Z,99371.61
2019-01-03T10:03:52.069Z,99371.03
2019-01-03T10:06:21.385Z,99364.25
2019-01-03T10:08:49.902Z,99362.57
2019-01-03T10:11:18.433Z,99358.45
2019-01-03T10:13:47.782Z,99358.01
2019-01-03T10:16:17.104Z,99355.34
2019-01-03T10:18:46.433Z,99358.25
2019-01-03T10:21:15.742Z,99353.78
2019-01-03T10:23:45.074Z,99350.64
2019-01-03T10:26:14.388Z,99355.70
2019-01-03T10:28:43.698Z,99349.48
2019-01-03T10:31:12.319Z,99341.81
2019-01-03T10:33:41.668Z,99350.08
2019-01-03T10:36:10.072Z,99347.88
2019-01-03T10:38:39.423Z,99337.92
2019-01-03T10:41:08.766Z,99337.71
2019-01-03T10:43:38.095Z,99337.02
2019-01-03T10:46:07.432Z,99337.22
2019-01-03T10:48:36.766Z,99325.05
2019-01-03T10:51:06.118Z,99329.67
2019-01-03T10:53:35.462Z,99333.09
2019-01-03T10:56:04.794Z,99324.27
2019-01-03T10:58:33.213Z,99319.20
2019-01-03T11:01:02.559Z,99316.06
2019-01-03T11:03:31.905Z,99302.80
2019-01-03T11:06:01.255Z,99303.08
2019-01-03T11:08:30.675Z,99301.44
2019-01-03T11:11:02.194Z,99300.92
2019-01-03T11:13:49.203Z,99300.63
2019-01-03T11:16:18.546Z,99306.87
2019-01-03T11:18:47.872Z,99304.22
2019-01-03T11:21:16.399Z,99317.75
2019-01-03T11:23:45.716Z,99295.11
2019-01-03T11:26:15.137Z,99295.31
2019-01-03T11:28:43.660Z,99292.03
2019-01-03T11:31:13.002Z,99291.94
2019-01-03T11:33:42.338Z,99277.83
2019-01-03T11:36:11.685Z,99279.27
2019-01-03T11:38:41.052Z,99273.61
2019-01-03T11:41:10.393Z,99274.30
2019-01-03T11:43:39.702Z,99279.57
2019-01-03T11:46:09.052Z,99283.33
2019-01-03T11:48:38.367Z,99279.54
2019-01-03T11:51:06.941Z,99283.56
2019-01-03T11:53:36.268Z,99273.38
2019-01-03T11:56:05.594Z,99274.16
2019-01-03T11:58:34.905Z,99265.87
2019-01-03T12:01:04.258Z,99269.27
2019-01-03T12:03:33.570Z,99263.05
2019-01-03T12:06:02.886Z,99266.61
2019-01-03T12:08:32.224Z,99269.16
2019-01-03T12:11:01.538Z,99273.06
2019-01-03T12:13:30.211Z,99276.26
2019-01-03T12:15:58.842Z,99281.58
2019-01-03T12:18:27.364Z,99278.56
2019-01-03T12:20:56.725Z,99282.73
2019-01-03T12:23:26.064Z,99274.51
2019-01-03T12:25:55.411Z,99282.41
2019-01-03T12:28:24.731Z,99293.24
2019-01-03T12:30:54.067Z,99294.25
2019-01-03T12:33:23.508Z,99293.45
2019-01-03T12:35:52.834Z,99292.63
2019-01-03T12:38:22.152Z,99287.80
2019-01-03T12:40:51.473Z,99283.32
2019-01-03T12:43:20.023Z,99275.81
2019-01-03T12:45:49.356Z,99279.33
2019-01-03T12:48:18.798Z,99270.45
2019-01-03T12:50:48.129Z,99269.94
2019-01-03T12:53:17.460Z,99280.78
2019-01-03T12:55:46.843Z,99279.74
2019-01-03T12:58:16.193Z,99279.06
2019-01-03T13:00:45.630Z,99288.45
2019-01-03T13:03:15.065Z,99284.69
2019-01-03T13:05:44.388Z,99289.39
2019-01-03T13:08:13.834Z,99298.54
2019-01-03T13:10:43.191Z,99297.66
2019-01-03T13:13:11.806Z,99302.66
2019-01-03T13:15:40.451Z,99305.76
2019-01-03T13:18:09.794Z,99304.77
2019-01-03T13:20:39.114Z,99299.77
2019-01-03T13:23:08.506Z,99298.47
2019-01-03T13:25:37.818Z,99299.41
2019-01-03T13:28:07.162Z,99298.55
2019-01-03T13:30:36.495Z,99295.76
2019-01-03T13:33:05.849Z,99286.13
2019-01-03T13:35:35.186Z,99287.58
2019-01-03T13:38:03.965Z,99287.38
2019-01-03T13:40:33.294Z,99299.86
2019-01-03T13:43:02.644Z,99292.09
2019-01-03T13:45:31.967Z,99291.38
2019-01-03T13:48:01.296Z,99287.78
2019-01-03T13:50:30.640Z,99288.89
2019-01-03T13:52:59.990Z,99289.53
2019-01-03T13:55:29.322Z,99288.69
2019-01-03T13:57:58.645Z,99282.30
2019-01-03T14:00:27.967Z,99281.00
2019-01-03T14:02:57.587Z,99285.50
2019-01-03T14:05:26.004Z,99285.81
2019-01-03T14:07:55.323Z,99292.27
2019-01-03T14:10:23.934Z,99283.50
2019-01-03T14:12:53.282Z,99284.99
2019-01-03T14:15:22.906Z,99284.75
2019-01-03T14:17:52.212Z,99283.70
2019-01-03T14:20:21.566Z,99283.83
2019-01-03T14:22:53.593Z,99277.44
2019-01-03T14:25:22.962Z,99267.50
2019-01-03T14:27:52.299Z,99267.75
2019-01-03T14:30:21.646Z,99263.02
2019-01-03T14:32:50.981Z,99267.73
2019-01-03T14:35:20.303Z,99262.72
2019-01-03T14:37:49.140Z,99258.45
2019-01-03T14:40:18.495Z,99261.73
2019-01-03T14:42:47.142Z,99253.13
2019-01-03T14:45:16.477Z,99258.08
2019-01-03T14:47:45.826Z,99248.62
2019-01-03T14:50:15.203Z,99238.50
2019-01-03T14:52:44.546Z,99230.92
2019-01-03T14:55:13.871Z,99222.82
2019-01-03T14:57:43.215Z,99226.45
2019-01-03T15:00:13.773Z,99225.39
2019-01-03T15:02:42.398Z,99220.67
2019-01-03T15:05:14.014Z,99219.19
2019-01-03T15:08:00.969Z,99229.40
2019-01-03T15:10:29.618Z,99234.14
2019-01-03T15:12:58.956Z,99223.39
2019-01-03T15:15:28.273Z,99219.06
2019-01-03T15:17:57.605Z,99230.17
2019-01-03T15:20:26.949Z,99229.64
2019-01-03T15:22:56.275Z,99223.25
2019-01-03T15:25:25.598Z,99221.75
2019-01-03T15:27:54.936Z,99218.08
2019-01-03T15:30:24.260Z,99216.34
2019-01-03T15:32:53.634Z,99209.89
2019-01-03T15:35:22.154Z,99220.36
2019-01-03T15:37:51.178Z,99212.05
2019-01-03T15:40:19.755Z,99211.14
2019-01-03T15:42:49.094Z,99213.88
2019-01-03T15:45:18.413Z,99215.11
2019-01-03T15:47:47.429Z,99217.08
2019-01-03T15:50:16.287Z,99216.15
2019-01-03T15:52:45.640Z,99209.88
2019-01-03T15:55:14.970Z,99210.48
2019-01-03T15:57:44.285Z,99212.89
2019-01-03T16:00:12.806Z,99218.96
2019-01-03T16:02:41.434Z,99226.12
2019-01-03T16:05:10.881Z,99231.39
2019-01-03T16:07:40.223Z,99232.13
2019-01-03T16:10:09.562Z,99244.25
2019-01-03T16:12:38.288Z,99235.77
2019-01-03T16:15:07.711Z,99238.42
2019-01-03T16:17:37.048Z,99244.55
2019-01-03T16:20:07.043Z,99242.69
2019-01-03T16:22:35.853Z,99242.63
2019-01-03T16:25:04.741Z,99246.76
2019-01-03T16:27:34.057Z,99250.77
2019-01-03T16:30:04.765Z,99251.38
2019-01-03T16:32:34.082Z,99254.23
2019-01-03T16:35:03.522Z,99244.84
2019-01-03T16:37:32.858Z,99243.73
2019-01-03T16:40:02.286Z,99245.14
2019-01-03T16:42:50.960Z,99243.23
2019-01-03T16:45:20.298Z,99249.03
2019-01-03T16:47:49.617Z,99249.97
2019-01-03T16:50:19.037Z,99249.30
2019-01-03T16:52:47.868Z,99252.30
2019-01-03T16:55:17.314Z,99253.45
2019-01-03T16:57:46.766Z,99262.59
2019-01-03T17:00:15.791Z,99255.28
2019-01-03T17:02:45.466Z,99253.67
2019-01-03T17:05:14.966Z,99255.63
2019-01-03T17:07:44.311Z,99247.47
2019-01-03T17:10:15.575Z,99243.61
2019-01-03T17:12:44.098Z,99233.66
2019-01-03T17:15:13.566Z,99238.59
2019-01-03T17:17:43.014Z,99234.59
2019-01-03T17:20:33.742Z,99238.78
2019-01-03T17:26:05.975Z,99225.92
2019-01-03T17:28:35.509Z,99229.98
2019-01-03T17:31:04.896Z,99226.95
2019-01-03T17:33:34.231Z,99232.22
2019-01-03T17:36:06.447Z,99226.97
2019-01-03T17:38:35.070Z,99230.63
2019-01-03T17:41:03.593Z,99225.63
2019-01-03T17:43:32.620Z,99234.77
2019-01-03T17:46:02.031Z,99227.52
2019-01-03T17:48:31.358Z,99235.06
2019-01-03T17:50:59.775Z,99231.06
2019-01-03T17:53:28.414Z,99227.65
2019-01-03T17:55:57.735Z,99221.99
2019-01-03T18:01:29.649Z,99229.14
2019-01-03T18:03:58.993Z,99230.63
2019-01-03T18:06:28.483Z,99228.54
2019-01-03T18:08:57.818Z,99226.92
2019-01-03T18:11:27.159Z,99226.53
2019-01-03T18:13:56.522Z,99224.27
2019-01-03T18:16:25.886Z,99230.69
2019-01-03T18:18:56.142Z,99232.44
2019-01-03T18:21:25.551Z,99222.33
2019-01-03T18:23:55.278Z,99231.53
2019-01-03T18:26:25.052Z,99235.03
2019-01-03T18:28:54.603Z,99233.70
2019-01-03T18:31:23.355Z,99232.92
2019-01-03T18:33:51.995Z,99235.44
2019-01-03T18:36:21.367Z,99236.89
2019-01-03T18:38:50.862Z,99243.80
2019-01-03T18:41:20.488Z,99241.64
2019-01-03T18:43:49.930Z,99249.05
2019-01-03T18:46:19.338Z,99259.69
2019-01-03T18:48:48.682Z,99268.00
2019-01-03T18:51:18.111Z,99252.45
2019-01-03T18:53:47.573Z,99269.37
2019-01-03T18:56:16.450Z,99263.48
2019-01-03T18:58:45.096Z,99264.50
2019-01-03T19:01:13.773Z,99265.64
2019-01-03T19:03:43.142Z,99268.48
2019-01-03T19:06:12.536Z,99259.80
2019-01-03T19:08:42.143Z,99269.33
2019-01-03T19:11:11.511Z,99273.03
2019-01-03T19:13:40.121Z,99276.14
2019-01-03T19:16:09.477Z,99277.23
2019-01-03T19:18:39.114Z,99276.50
2019-01-03T19:21:08.653Z,99279.20
2019-01-03T19:23:37.199Z,99284.86
2019-01-03T19:26:06.766Z,99279.34
2019-01-03T19:28:35.322Z,99284.44
2019-01-03T19:31:04.686Z,99285.39
2019-01-03T19:33:34.185Z,99285.34
2019-01-03T19:36:03.622Z,99287.63
2019-01-03T19:38:32.970Z,99289.84
2019-01-03T19:41:02.279Z,99303.61
2019-01-03T19:43:31.314Z,99294.19
2019-01-03T19:45:59.838Z,99293.25
2019-01-03T19:48:29.155Z,99291.26
2019-01-03T19:50:58.493Z,99287.86
2019-01-03T19:53:27.827Z,99285.75
2019-01-03T19:55:57.180Z,99281.66
2019-01-03T19:58:26.518Z,99293.52
2019-01-03T20:00:59.689Z,99280.17
2019-01-03T20:03:29.029Z,99281.55
2019-01-03T20:05:58.419Z,99285.69
2019-01-03T20:08:27.734Z,99282.20
2019-01-03T20:10:57.064Z,99275.91
2019-01-03T20:13:26.391Z,99279.21
2019-01-03T20:15:55.743Z,99281.81
2019-01-03T20:18:24.309Z,99282.72
2019-01-03T20:20:53.625Z,99284.06
2019-01-03T20:23:22.950Z,99282.30
2019-01-03T20:25:52.284Z,99282.62
2019-01-03T20:28:20.815Z,99286.32
2019-01-03T20:30:50.146Z,99288.86
2019-01-03T20:33:19.653Z,99294.38
2019-01-03T20:35:48.990Z,99297.50
2019-01-03T20:38:18.333Z,99292.55
2019-01-03T20:40:46.865Z,99297.02
2019-01-03T20:43:18.483Z,99301.97
2019-01-03T20:45:48.389Z,99301.11
2019-01-03T20:48:18.602Z,99298.81
2019-01-03T20:50:50.500Z,99305.57
2019-01-03T20:53:32.475Z,99302.73
2019-01-03T20:56:08.158Z,99308.06
2019-01-03T20:58:53.127Z,99301.92
2019-01-03T21:01:22.378Z,99298.95
2019-01-03T21:03:52.414Z,99305.42
2019-01-03T21:09:36.543Z,99311.48
2019-01-03T21:12:05.330Z,99308.94
2019-01-03T21:14:33.754Z,99307.87
2019-01-03T21:17:03.110Z,99323.09
2019-01-03T21:19:34.145Z,99321.08
2019-01-03T21:22:03.634Z,99317.86
2019-01-03T21:24:32.958Z,99328.02
2019-01-03T21:27:02.293Z,99328.37
2019-01-03T21:29:30.955Z,99324.95
2019-01-03T21:32:18.901Z,99339.22
2019-01-03T21:35:07.925Z,99338.48
2019-01-03T21:37:37.345Z,99346.08
2019-01-03T21:40:09.704Z,99349.05
2019-01-03T21:42:57.959Z,99353.94
2019-01-03T21:45:26.737Z,99358.35
2019-01-03T21:47:56.165Z,99362.84
2019-01-03T21:50:28.304Z,99367.51
2019-01-03T21:52:57.740Z,99374.97
2019-01-03T21:55:29.650Z,99376.62
2019-01-03T21:57:58.393Z,99370.53
2019-01-03T22:00:27.321Z,99371.30
2019-01-03T22:02:56.658Z,99360.25
2019-01-03T22:08:05.590Z,99370.88
2019-01-03T22:10:34.927Z,99372.16
2019-01-03T22:13:04.646Z,99386.08
2019-01-03T22:15:34.077Z,99388.09
2019-01-03T22:18:03.410Z,99390.77
2019-01-03T22:20:33.236Z,99396.91
2019-01-03T22:23:02.706Z,99387.43
2019-01-03T22:25:31.325Z,99388.30
2019-01-03T22:27:59.871Z,99390.06
2019-01-03T22:30:29.244Z,99395.91
2019-01-03T22:32:58.529Z,99394.96
2019-01-03T22:35:27.857Z,99403.02
2019-01-03T22:37:57.206Z,99403.16
2019-01-03T22:40:26.541Z,99408.77
2019-01-03T22:42:58.703Z,99409.48
2019-01-03T22:45:28.035Z,99425.92
2019-01-03T22:47:57.811Z,99425.71
2019-01-03T22:50:27.129Z,99430.59
2019-01-03T22:52:56.471Z,99435.89
2019-01-03T22:55:25.829Z,99432.58
2019-01-03T22:57:55.174Z,99437.57
2019-01-03T23:00:32.858Z,99434.55
2019-01-03T23:06:06.690Z,99437.18
2019-01-03T23:08:36.005Z,99442.51
2019-01-03T23:11:05.373Z,99443.19
2019-01-03T23:13:34.716Z,99446.39
2019-01-03T23:16:03.224Z,99444.41
2019-01-03T23:18:32.573Z,99449.70
2019-01-03T23:21:01.930Z,99453.83
2019-01-03T23:23:30.450Z,99453.33
2019-01-03T23:28:55.271Z,99457.31
2019-01-03T23:31:23.897Z,99460.87
2019-01-03T23:33:52.434Z,99459.16
2019-01-03T23:36:21.761Z,99463.29
2019-01-03T23:41:33.845Z,99468.07
2019-01-03T23:44:06.050Z,99468.97
2019-01-03T23:46:35.402Z,99473.69
2019-01-03T23:49:03.954Z,99491.77
2019-01-03T23:51:33.296Z,99483.00
2019-01-03T23:54:02.631Z,99490.17
2019-01-03T23:56:31.244Z,99492.37
2019-01-03T23:59:00.569Z,99489.28
